sensor_id;sensor_type;location;lat;lon;timestamp;pressure;altitude;pressure_sealevel;temperature;humidity
28588;BME280;15787;49.662;10.162;2023-10-31T00:02:15;97320.91;;;12.47;100.00
28588;BME280;15787;49.662;10.162;2023-10-31T00:04:57;97320.13;;;12.46;100.00
28588;BME280;15787;49.662;10.162;2023-10-31T00:07:30;97326.41;;;12.41;100.00
28588;BME280;15787;49.662;10.162;2023-10-31T00:10:06;97325.00;;;12.31;100.00
28588;BME280;15787;49.662;10.162;2023-10-31T00:12:39;97314.75;;;12.28;100.00
28588;BME280;15787;49.662;10.162;2023-10-31T00:15:15;97319.50;;;12.22;100.00
28588;BME280;15787;49.662;10.162;2023-10-31T00:17:48;97319.00;;;12.24;100.00
28588;BME280;15787;49.662;10.162;2023-10-31T00:20:23;97318.81;;;12.27;100.00
28588;BME280;15787;49.662;10.162;2023-10-31T00:22:57;97318.91;;;12.33;100.00
28588;BME280;15787;49.662;10.162;2023-10-31T00:25:31;97328.16;;;12.39;100.00
28588;BME280;15787;49.662;10.162;2023-10-31T00:28:49;97326.63;;;12.23;100.00
28588;BME280;15787;49.662;10.162;2023-10-31T00:36:39;97339.34;;;12.39;100.00
28588;BME280;15787;49.662;10.162;2023-10-31T00:40:49;97344.00;;;12.27;100.00
28588;BME280;15787;49.662;10.162;2023-10-31T00:50:24;97347.56;;;12.13;100.00
28588;BME280;15787;49.662;10.162;2023-10-31T00:52:58;97335.53;;;12.07;100.00
28588;BME280;15787;49.662;10.162;2023-10-31T00:55:31;97339.78;;;12.17;100.00
28588;BME280;15787;49.662;10.162;2023-10-31T00:58:06;97338.72;;;12.15;100.00
28588;BME280;15787;49.662;10.162;2023-10-31T01:00:39;97337.94;;;12.14;100.00
28588;BME280;15787;49.662;10.162;2023-10-31T01:03:16;97338.50;;;12.18;100.00
28588;BME280;15787;49.662;10.162;2023-10-31T01:05:50;97334.84;;;12.12;100.00
28588;BME280;15787;49.662;10.162;2023-10-31T01:08:24;97341.59;;;12.20;100.00
28588;BME280;15787;49.662;10.162;2023-10-31T01:10:58;97343.25;;;12.12;100.00
28588;BME280;15787;49.662;10.162;2023-10-31T01:13:31;97350.28;;;12.08;100.00
28588;BME280;15787;49.662;10.162;2023-10-31T01:16:05;97350.38;;;12.13;100.00
28588;BME280;15787;49.662;10.162;2023-10-31T01:18:38;97359.44;;;12.08;100.00
28588;BME280;15787;49.662;10.162;2023-10-31T01:21:11;97365.63;;;12.12;100.00
28588;BME280;15787;49.662;10.162;2023-10-31T01:23:50;97352.66;;;12.00;100.00
28588;BME280;15787;49.662;10.162;2023-10-31T01:26:24;97359.63;;;12.04;100.00
28588;BME280;15787;49.662;10.162;2023-10-31T01:28:58;97366.38;;;11.98;100.00
28588;BME280;15787;49.662;10.162;2023-10-31T01:31:32;97377.00;;;11.94;100.00
28588;BME280;15787;49.662;10.162;2023-10-31T01:34:16;97381.03;;;11.93;100.00
28588;BME280;15787;49.662;10.162;2023-10-31T01:36:50;97382.38;;;11.83;100.00
28588;BME280;15787;49.662;10.162;2023-10-31T01:39:42;97391.34;;;11.87;100.00
28588;BME280;15787;49.662;10.162;2023-10-31T01:42:27;97389.88;;;11.77;100.00
28588;BME280;15787;49.662;10.162;2023-10-31T01:45:57;97386.31;;;11.76;100.00
28588;BME280;15787;49.662;10.162;2023-10-31T01:48:33;97395.28;;;11.80;100.00
28588;BME280;15787;49.662;10.162;2023-10-31T01:51:14;97401.53;;;11.75;100.00
28588;BME280;15787;49.662;10.162;2023-10-31T01:53:47;97410.41;;;11.74;100.00
28588;BME280;15787;49.662;10.162;2023-10-31T01:56:22;97420.66;;;11.77;100.00
28588;BME280;15787;49.662;10.162;2023-10-31T01:58:55;97422.66;;;11.76;100.00
28588;BME280;15787;49.662;10.162;2023-10-31T02:01:28;97428.63;;;11.69;100.00
28588;BME280;15787;49.662;10.162;2023-10-31T02:04:04;97422.25;;;11.69;100.00
28588;BME280;15787;49.662;10.162;2023-10-31T02:06:37;97430.00;;;11.65;100.00
28588;BME280;15787;49.662;10.162;2023-10-31T02:09:10;97440.78;;;11.57;100.00
28588;BME280;15787;49.662;10.162;2023-10-31T02:11:45;97457.91;;;11.50;100.00
28588;BME280;15787;49.662;10.162;2023-10-31T02:14:18;97471.47;;;11.42;100.00
28588;BME280;15787;49.662;10.162;2023-10-31T02:16:51;97476.47;;;11.38;100.00
28588;BME280;15787;49.662;10.162;2023-10-31T02:19:24;97495.06;;;11.41;100.00
28588;BME280;15787;49.662;10.162;2023-10-31T02:21:59;97502.13;;;11.28;100.00
28588;BME280;15787;49.662;10.162;2023-10-31T02:24:32;97517.81;;;11.25;100.00
28588;BME280;15787;49.662;10.162;2023-10-31T02:27:05;97512.66;;;11.33;100.00
28588;BME280;15787;49.662;10.162;2023-10-31T02:29:39;97521.97;;;11.30;100.00
28588;BME280;15787;49.662;10.162;2023-10-31T02:32:12;97519.69;;;11.28;100.00
28588;BME280;15787;49.662;10.162;2023-10-31T02:34:45;97523.34;;;11.34;100.00
28588;BME280;15787;49.662;10.162;2023-10-31T02:37:20;97521.50;;;11.31;100.00
28588;BME280;15787;49.662;10.162;2023-10-31T02:39:52;97522.16;;;11.26;100.00
28588;BME280;15787;49.662;10.162;2023-10-31T02:42:26;97531.31;;;11.27;100.00
28588;BME280;15787;49.662;10.162;2023-10-31T02:44:59;97525.59;;;11.21;100.00
28588;BME280;15787;49.662;10.162;2023-10-31T02:47:32;97524.56;;;11.10;100.00
28588;BME280;15787;49.662;10.162;2023-10-31T02:50:07;97520.63;;;11.16;100.00
28588;BME280;15787;49.662;10.162;2023-10-31T02:52:41;97529.69;;;11.02;100.00
28588;BME280;15787;49.662;10.162;2023-10-31T02:55:14;97541.03;;;10.99;100.00
28588;BME280;15787;49.662;10.162;2023-10-31T02:57:47;97545.09;;;10.89;100.00
28588;BME280;15787;49.662;10.162;2023-10-31T03:00:20;97550.22;;;10.90;100.00
28588;BME280;15787;49.662;10.162;2023-10-31T03:02:53;97564.00;;;10.94;100.00
28588;BME280;15787;49.662;10.162;2023-10-31T03:05:27;97559.34;;;11.00;100.00
28588;BME280;15787;49.662;10.162;2023-10-31T03:08:01;97567.44;;;10.98;100.00
28588;BME280;15787;49.662;10.162;2023-10-31T03:10:35;97566.50;;;10.92;100.00
28588;BME280;15787;49.662;10.162;2023-10-31T03:13:08;97564.19;;;10.90;100.00
28588;BME280;15787;49.662;10.162;2023-10-31T03:15:41;97564.44;;;11.01;100.00
28588;BME280;15787;49.662;10.162;2023-10-31T03:18:15;97565.09;;;10.96;100.00
28588;BME280;15787;49.662;10.162;2023-10-31T03:20:48;97571.94;;;10.95;100.00
28588;BME280;15787;49.662;10.162;2023-10-31T03:23:22;97569.13;;;10.86;100.00
28588;BME280;15787;49.662;10.162;2023-10-31T03:25:55;97568.22;;;10.89;100.00
28588;BME280;15787;49.662;10.162;2023-10-31T03:28:28;97570.88;;;10.74;100.00
28588;BME280;15787;49.662;10.162;2023-10-31T03:31:01;97576.16;;;10.72;100.00
28588;BME280;15787;49.662;10.162;2023-10-31T03:33:35;97567.59;;;10.76;100.00
28588;BME280;15787;49.662;10.162;2023-10-31T03:36:09;97573.03;;;10.70;100.00
28588;BME280;15787;49.662;10.162;2023-10-31T03:38:44;97570.59;;;10.72;100.00
28588;BME280;15787;49.662;10.162;2023-10-31T03:41:18;97573.53;;;10.69;100.00
28588;BME280;15787;49.662;10.162;2023-10-31T03:43:54;97574.94;;;10.64;100.00
28588;BME280;15787;49.662;10.162;2023-10-31T03:46:27;97582.66;;;10.60;100.00
28588;BME280;15787;49.662;10.162;2023-10-31T03:49:00;97580.66;;;10.61;100.00
28588;BME280;15787;49.662;10.162;2023-10-31T03:51:33;97589.34;;;10.63;100.00
28588;BME280;15787;49.662;10.162;2023-10-31T03:54:07;97580.03;;;10.66;100.00
28588;BME280;15787;49.662;10.162;2023-10-31T03:56:41;97583.44;;;10.61;100.00
28588;BME280;15787;49.662;10.162;2023-10-31T03:59:14;97595.25;;;10.65;100.00
28588;BME280;15787;49.662;10.162;2023-10-31T04:01:47;97605.47;;;10.59;100.00
28588;BME280;15787;49.662;10.162;2023-10-31T04:04:20;97600.50;;;10.63;100.00
28588;BME280;15787;49.662;10.162;2023-10-31T04:06:59;97599.41;;;10.60;100.00
28588;BME280;15787;49.662;10.162;2023-10-31T04:09:43;97602.06;;;10.64;100.00
28588;BME280;15787;49.662;10.162;2023-10-31T04:12:16;97595.22;;;10.56;100.00
28588;BME280;15787;49.662;10.162;2023-10-31T04:14:50;97596.63;;;10.51;100.00
28588;BME280;15787;49.662;10.162;2023-10-31T04:17:23;97603.63;;;10.65;100.00
28588;BME280;15787;49.662;10.162;2023-10-31T04:19:56;97599.28;;;10.55;100.00
28588;BME280;15787;49.662;10.162;2023-10-31T04:22:29;97599.88;;;10.59;100.00
28588;BME280;15787;49.662;10.162;2023-10-31T04:25:07;97609.50;;;10.58;100.00
28588;BME280;15787;49.662;10.162;2023-10-31T04:27:40;97603.78;;;10.52;100.00
28588;BME280;15787;49.662;10.162;2023-10-31T04:30:13;97605.31;;;10.53;100.00
28588;BME280;15787;49.662;10.162;2023-10-31T04:32:46;97609.66;;;10.45;100.00
28588;BME280;15787;49.662;10.162;2023-10-31T04:35:19;97618.19;;;10.51;100.00
28588;BME280;15787;49.662;10.162;2023-10-31T04:37:52;97614.47;;;10.54;100.00
28588;BME280;15787;49.662;10.162;2023-10-31T04:40:27;97600.66;;;10.50;100.00
28588;BME280;15787;49.662;10.162;2023-10-31T04:43:09;97602.38;;;10.57;100.00
28588;BME280;15787;49.662;10.162;2023-10-31T04:45:42;97609.97;;;10.56;100.00
28588;BME280;15787;49.662;10.162;2023-10-31T04:48:15;97602.19;;;10.60;100.00
28588;BME280;15787;49.662;10.162;2023-10-31T04:50:48;97603.16;;;10.57;100.00
28588;BME280;15787;49.662;10.162;2023-10-31T04:53:21;97613.69;;;10.53;100.00
28588;BME280;15787;49.662;10.162;2023-10-31T04:55:56;97610.72;;;10.48;100.00
28588;BME280;15787;49.662;10.162;2023-10-31T04:58:29;97617.41;;;10.50;100.00
28588;BME280;15787;49.662;10.162;2023-10-31T05:01:02;97614.16;;;10.52;100.00
28588;BME280;15787;49.662;10.162;2023-10-31T05:03:35;97613.25;;;10.55;100.00
28588;BME280;15787;49.662;10.162;2023-10-31T05:06:08;97629.66;;;10.53;100.00
28588;BME280;15787;49.662;10.162;2023-10-31T05:08:41;97631.06;;;10.57;100.00
28588;BME280;15787;49.662;10.162;2023-10-31T05:11:17;97627.47;;;10.48;100.00
28588;BME280;15787;49.662;10.162;2023-10-31T05:13:51;97632.28;;;10.56;100.00
28588;BME280;15787;49.662;10.162;2023-10-31T05:16:23;97643.59;;;10.53;100.00
28588;BME280;15787;49.662;10.162;2023-10-31T05:18:56;97637.28;;;10.52;100.00
28588;BME280;15787;49.662;10.162;2023-10-31T05:21:31;97644.56;;;10.50;100.00
28588;BME280;15787;49.662;10.162;2023-10-31T05:24:05;97642.22;;;10.57;100.00
28588;BME280;15787;49.662;10.162;2023-10-31T05:26:40;97640.81;;;10.53;100.00
28588;BME280;15787;49.662;10.162;2023-10-31T05:29:16;97644.88;;;10.52;100.00
28588;BME280;15787;49.662;10.162;2023-10-31T05:31:49;97654.31;;;10.54;100.00
28588;BME280;15787;49.662;10.162;2023-10-31T05:34:22;97657.72;;;10.49;100.00
28588;BME280;15787;49.662;10.162;2023-10-31T05:36:55;97649.81;;;10.48;100.00
28588;BME280;15787;49.662;10.162;2023-10-31T05:39:28;97646.56;;;10.49;100.00
28588;BME280;15787;49.662;10.162;2023-10-31T05:42:03;97660.34;;;10.53;100.00
28588;BME280;15787;49.662;10.162;2023-10-31T05:44:36;97653.53;;;10.45;100.00
28588;BME280;15787;49.662;10.162;2023-10-31T05:47:09;97656.47;;;10.41;100.00
28588;BME280;15787;49.662;10.162;2023-10-31T05:49:42;97654.78;;;10.44;100.00
28588;BME280;15787;49.662;10.162;2023-10-31T05:52:16;97664.41;;;10.52;100.00
28588;BME280;15787;49.662;10.162;2023-10-31T05:54:49;97669.06;;;10.55;100.00
28588;BME280;15787;49.662;10.162;2023-10-31T05:57:23;97674.16;;;10.47;100.00
28588;BME280;15787;49.662;10.162;2023-10-31T05:59:56;97678.78;;;10.50;100.00
28588;BME280;15787;49.662;10.162;2023-10-31T06:02:29;97687.19;;;10.59;100.00
28588;BME280;15787;49.662;10.162;2023-10-31T06:05:02;97693.84;;;10.53;100.00
28588;BME280;15787;49.662;10.162;2023-10-31T06:07:35;97684.84;;;10.58;100.00
28588;BME280;15787;49.662;10.162;2023-10-31T06:10:09;97702.38;;;10.49;100.00
28588;BME280;15787;49.662;10.162;2023-10-31T06:12:43;97705.16;;;10.49;100.00
28588;BME280;15787;49.662;10.162;2023-10-31T06:15:17;97711.66;;;10.55;100.00
28588;BME280;15787;49.662;10.162;2023-10-31T06:17:49;97710.75;;;10.49;100.00
28588;BME280;15787;49.662;10.162;2023-10-31T06:20:22;97712.75;;;10.58;100.00
28588;BME280;15787;49.662;10.162;2023-10-31T06:22:55;97725.31;;;10.53;100.00
28588;BME280;15787;49.662;10.162;2023-10-31T06:25:29;97711.38;;;10.53;100.00
28588;BME280;15787;49.662;10.162;2023-10-31T06:28:03;97724.38;;;10.47;100.00
28588;BME280;15787;49.662;10.162;2023-10-31T06:30:36;97727.19;;;10.47;100.00
28588;BME280;15787;49.662;10.162;2023-10-31T06:33:09;97737.44;;;10.59;100.00
28588;BME280;15787;49.662;10.162;2023-10-31T06:35:44;97735.09;;;10.58;100.00
28588;BME280;15787;49.662;10.162;2023-10-31T06:38:16;97733.25;;;10.55;100.00
28588;BME280;15787;49.662;10.162;2023-10-31T06:40:49;97739.78;;;10.70;100.00
28588;BME280;15787;49.662;10.162;2023-10-31T06:43:24;97743.63;;;10.54;100.00
28588;BME280;15787;49.662;10.162;2023-10-31T06:45:57;97763.16;;;10.54;100.00
28588;BME280;15787;49.662;10.162;2023-10-31T06:48:32;97762.56;;;10.59;100.00
28588;BME280;15787;49.662;10.162;2023-10-31T06:51:05;97773.41;;;10.57;100.00
28588;BME280;15787;49.662;10.162;2023-10-31T06:53:38;97775.72;;;10.59;100.00
28588;BME280;15787;49.662;10.162;2023-10-31T06:56:11;97773.28;;;10.70;100.00
28588;BME280;15787;49.662;10.162;2023-10-31T06:58:45;97788.47;;;10.69;100.00
28588;BME280;15787;49.662;10.162;2023-10-31T07:01:19;97790.16;;;10.75;100.00
28588;BME280;15787;49.662;10.162;2023-10-31T07:03:52;97792.81;;;10.79;100.00
28588;BME280;15787;49.662;10.162;2023-10-31T07:06:25;97807.41;;;10.74;100.00
28588;BME280;15787;49.662;10.162;2023-10-31T07:08:58;97799.63;;;10.69;100.00
28588;BME280;15787;49.662;10.162;2023-10-31T07:11:36;97810.78;;;10.60;100.00
28588;BME280;15787;49.662;10.162;2023-10-31T07:14:10;97804.88;;;10.58;100.00
28588;BME280;15787;49.662;10.162;2023-10-31T07:16:44;97807.03;;;10.54;100.00
28588;BME280;15787;49.662;10.162;2023-10-31T07:19:17;97816.00;;;10.49;100.00
28588;BME280;15787;49.662;10.162;2023-10-31T07:21:50;97814.00;;;10.49;100.00
28588;BME280;15787;49.662;10.162;2023-10-31T07:24:24;97805.94;;;10.51;100.00
28588;BME280;15787;49.662;10.162;2023-10-31T07:26:58;97818.38;;;10.68;100.00
28588;BME280;15787;49.662;10.162;2023-10-31T07:29:32;97821.09;;;10.90;100.00
28588;BME280;15787;49.662;10.162;2023-10-31T07:32:06;97823.53;;;10.79;100.00
28588;BME280;15787;49.662;10.162;2023-10-31T07:34:41;97822.31;;;10.80;100.00
28588;BME280;15787;49.662;10.162;2023-10-31T07:37:15;97833.47;;;10.89;100.00
28588;BME280;15787;49.662;10.162;2023-10-31T07:39:48;97833.78;;;10.91;100.00
28588;BME280;15787;49.662;10.162;2023-10-31T07:42:22;97840.81;;;10.96;100.00
28588;BME280;15787;49.662;10.162;2023-10-31T07:44:56;97841.25;;;10.94;100.00
28588;BME280;15787;49.662;10.162;2023-10-31T07:47:29;97839.56;;;10.97;100.00
28588;BME280;15787;49.662;10.162;2023-10-31T07:50:02;97848.22;;;10.90;100.00
28588;BME280;15787;49.662;10.162;2023-10-31T07:52:35;97839.38;;;10.91;100.00
28588;BME280;15787;49.662;10.162;2023-10-31T07:55:08;97839.06;;;10.89;100.00
28588;BME280;15787;49.662;10.162;2023-10-31T07:57:45;97837.66;;;10.85;100.00
28588;BME280;15787;49.662;10.162;2023-10-31T08:00:20;97844.16;;;10.82;100.00
28588;BME280;15787;49.662;10.162;2023-10-31T08:02:53;97855.38;;;10.91;100.00
28588;BME280;15787;49.662;10.162;2023-10-31T08:05:27;97862.16;;;10.80;100.00
28588;BME280;15787;49.662;10.162;2023-10-31T08:08:01;97856.91;;;10.83;100.00
28588;BME280;15787;49.662;10.162;2023-10-31T08:10:34;97871.78;;;10.79;100.00
28588;BME280;15787;49.662;10.162;2023-10-31T08:13:07;97870.69;;;10.86;100.00
28588;BME280;15787;49.662;10.162;2023-10-31T08:15:41;97874.59;;;10.89;100.00
28588;BME280;15787;49.662;10.162;2023-10-31T08:18:14;97881.91;;;10.95;100.00
28588;BME280;15787;49.662;10.162;2023-10-31T08:20:47;97891.50;;;10.85;100.00
28588;BME280;15787;49.662;10.162;2023-10-31T08:23:22;97893.88;;;10.96;100.00
28588;BME280;15787;49.662;10.162;2023-10-31T08:25:55;97896.00;;;10.92;100.00
28588;BME280;15787;49.662;10.162;2023-10-31T08:28:28;97895.38;;;10.88;100.00
28588;BME280;15787;49.662;10.162;2023-10-31T08:31:04;97897.72;;;10.89;100.00
28588;BME280;15787;49.662;10.162;2023-10-31T08:33:37;97904.88;;;10.90;100.00
28588;BME280;15787;49.662;10.162;2023-10-31T08:36:10;97907.91;;;10.83;100.00
28588;BME280;15787;49.662;10.162;2023-10-31T08:38:43;97897.22;;;10.82;100.00
28588;BME280;15787;49.662;10.162;2023-10-31T08:41:16;97904.38;;;10.83;100.00
28588;BME280;15787;49.662;10.162;2023-10-31T08:43:51;97905.34;;;10.98;100.00
28588;BME280;15787;49.662;10.162;2023-10-31T08:46:26;97908.13;;;10.98;100.00
28588;BME280;15787;49.662;10.162;2023-10-31T08:48:59;97910.09;;;10.88;100.00
28588;BME280;15787;49.662;10.162;2023-10-31T08:51:32;97914.16;;;10.87;100.00
28588;BME280;15787;49.662;10.162;2023-10-31T08:54:06;97919.44;;;10.94;100.00
28588;BME280;15787;49.662;10.162;2023-10-31T08:56:38;97918.66;;;10.94;100.00
28588;BME280;15787;49.662;10.162;2023-10-31T08:59:13;97933.28;;;10.98;100.00
28588;BME280;15787;49.662;10.162;2023-10-31T09:01:47;97927.09;;;11.03;100.00
28588;BME280;15787;49.662;10.162;2023-10-31T09:04:21;97921.81;;;11.05;100.00
28588;BME280;15787;49.662;10.162;2023-10-31T09:06:54;97930.38;;;11.19;100.00
28588;BME280;15787;49.662;10.162;2023-10-31T09:09:27;97933.47;;;11.12;100.00
28588;BME280;15787;49.662;10.162;2023-10-31T09:12:00;97941.56;;;11.19;100.00
28588;BME280;15787;49.662;10.162;2023-10-31T09:14:33;97930.56;;;11.25;100.00
28588;BME280;15787;49.662;10.162;2023-10-31T09:17:08;97934.44;;;11.27;100.00
28588;BME280;15787;49.662;10.162;2023-10-31T09:19:41;97932.72;;;11.30;100.00
28588;BME280;15787;49.662;10.162;2023-10-31T09:22:14;97939.91;;;11.40;100.00
28588;BME280;15787;49.662;10.162;2023-10-31T09:24:48;97951.25;;;11.46;100.00
28588;BME280;15787;49.662;10.162;2023-10-31T09:27:20;97932.94;;;11.54;100.00
28588;BME280;15787;49.662;10.162;2023-10-31T09:29:53;97937.63;;;11.75;100.00
28588;BME280;15787;49.662;10.162;2023-10-31T09:32:28;97927.38;;;11.81;100.00
28588;BME280;15787;49.662;10.162;2023-10-31T09:35:01;97935.75;;;11.90;100.00
28588;BME280;15787;49.662;10.162;2023-10-31T09:37:34;97952.25;;;11.97;100.00
28588;BME280;15787;49.662;10.162;2023-10-31T09:40:08;97931.41;;;12.07;100.00
28588;BME280;15787;49.662;10.162;2023-10-31T09:42:43;97935.94;;;12.04;100.00
28588;BME280;15787;49.662;10.162;2023-10-31T09:45:17;97948.19;;;12.16;100.00
28588;BME280;15787;49.662;10.162;2023-10-31T09:47:52;97940.50;;;12.44;100.00
28588;BME280;15787;49.662;10.162;2023-10-31T09:50:25;97935.50;;;12.66;100.00
28588;BME280;15787;49.662;10.162;2023-10-31T09:52:59;97936.63;;;12.41;100.00
28588;BME280;15787;49.662;10.162;2023-10-31T09:55:33;97946.59;;;12.33;99.87
28588;BME280;15787;49.662;10.162;2023-10-31T09:58:06;97946.47;;;12.19;100.00
28588;BME280;15787;49.662;10.162;2023-10-31T10:00:39;97939.47;;;12.23;100.00
28588;BME280;15787;49.662;10.162;2023-10-31T10:03:15;97944.78;;;12.12;100.00
28588;BME280;15787;49.662;10.162;2023-10-31T10:05:49;97950.22;;;12.07;100.00
28588;BME280;15787;49.662;10.162;2023-10-31T10:08:22;97946.19;;;12.08;100.00
28588;BME280;15787;49.662;10.162;2023-10-31T10:10:55;97944.94;;;12.09;100.00
28588;BME280;15787;49.662;10.162;2023-10-31T10:13:28;97950.34;;;12.21;100.00
28588;BME280;15787;49.662;10.162;2023-10-31T10:16:01;97954.72;;;12.13;100.00
28588;BME280;15787;49.662;10.162;2023-10-31T10:18:36;97955.03;;;12.15;100.00
28588;BME280;15787;49.662;10.162;2023-10-31T10:21:11;97954.09;;;12.09;100.00
28588;BME280;15787;49.662;10.162;2023-10-31T10:23:46;97952.38;;;12.12;100.00
28588;BME280;15787;49.662;10.162;2023-10-31T10:26:21;97943.97;;;12.21;100.00
28588;BME280;15787;49.662;10.162;2023-10-31T10:28:57;97954.72;;;12.13;99.59
28588;BME280;15787;49.662;10.162;2023-10-31T10:31:30;97949.72;;;12.35;99.54
28588;BME280;15787;49.662;10.162;2023-10-31T10:34:04;97954.06;;;12.36;98.29
28588;BME280;15787;49.662;10.162;2023-10-31T10:36:38;97959.94;;;12.38;97.71
28588;BME280;15787;49.662;10.162;2023-10-31T10:39:11;97970.69;;;12.31;97.55
28588;BME280;15787;49.662;10.162;2023-10-31T10:41:46;97959.06;;;12.32;97.74
28588;BME280;15787;49.662;10.162;2023-10-31T10:44:25;97957.03;;;12.24;96.57
28588;BME280;15787;49.662;10.162;2023-10-31T10:47:03;97964.97;;;12.25;96.04
28588;BME280;15787;49.662;10.162;2023-10-31T10:49:41;97971.66;;;12.28;96.32
28588;BME280;15787;49.662;10.162;2023-10-31T10:52:18;97968.97;;;12.33;96.17
28588;BME280;15787;49.662;10.162;2023-10-31T10:55:00;97973.69;;;12.27;95.44
28588;BME280;15787;49.662;10.162;2023-10-31T10:57:38;97956.53;;;12.52;96.83
28588;BME280;15787;49.662;10.162;2023-10-31T11:00:14;97965.69;;;12.44;96.42
28588;BME280;15787;49.662;10.162;2023-10-31T11:02:48;97968.06;;;12.45;96.39
28588;BME280;15787;49.662;10.162;2023-10-31T11:05:26;97976.56;;;12.51;96.13
28588;BME280;15787;49.662;10.162;2023-10-31T11:07:59;97966.31;;;12.57;95.99
28588;BME280;15787;49.662;10.162;2023-10-31T11:10:34;97981.25;;;12.36;95.38
28588;BME280;15787;49.662;10.162;2023-10-31T11:13:08;97981.13;;;12.30;96.26
28588;BME280;15787;49.662;10.162;2023-10-31T11:15:43;97983.00;;;12.24;96.02
28588;BME280;15787;49.662;10.162;2023-10-31T11:18:16;97980.97;;;12.43;96.61
28588;BME280;15787;49.662;10.162;2023-10-31T11:20:51;97988.56;;;12.60;96.55
28588;BME280;15787;49.662;10.162;2023-10-31T11:23:24;97982.16;;;12.51;95.04
28588;BME280;15787;49.662;10.162;2023-10-31T11:25:57;97982.50;;;12.53;94.55
28588;BME280;15787;49.662;10.162;2023-10-31T11:28:32;97992.75;;;12.56;95.36
28588;BME280;15787;49.662;10.162;2023-10-31T11:31:05;97991.66;;;12.62;95.21
28588;BME280;15787;49.662;10.162;2023-10-31T11:33:39;97994.03;;;12.37;94.20
28588;BME280;15787;49.662;10.162;2023-10-31T11:36:19;97996.31;;;12.56;93.91
28588;BME280;15787;49.662;10.162;2023-10-31T11:39:10;98011.84;;;12.66;94.28
28588;BME280;15787;49.662;10.162;2023-10-31T11:41:48;98016.09;;;12.53;93.67
28588;BME280;15787;49.662;10.162;2023-10-31T11:44:22;98017.47;;;12.48;93.58
28588;BME280;15787;49.662;10.162;2023-10-31T11:46:58;98026.97;;;12.60;94.08
28588;BME280;15787;49.662;10.162;2023-10-31T11:49:47;98027.44;;;12.67;93.40
28588;BME280;15787;49.662;10.162;2023-10-31T11:52:22;98027.28;;;12.62;93.10
28588;BME280;15787;49.662;10.162;2023-10-31T11:54:55;98029.47;;;12.49;92.86
28588;BME280;15787;49.662;10.162;2023-10-31T11:57:28;98032.72;;;12.56;93.45
28588;BME280;15787;49.662;10.162;2023-10-31T12:00:02;98038.16;;;12.51;93.40
28588;BME280;15787;49.662;10.162;2023-10-31T12:02:56;98044.09;;;12.71;94.36
28588;BME280;15787;49.662;10.162;2023-10-31T12:05:30;98050.75;;;12.74;93.58
28588;BME280;15787;49.662;10.162;2023-10-31T12:08:05;98053.72;;;12.70;93.35
28588;BME280;15787;49.662;10.162;2023-10-31T12:10:38;98055.72;;;12.79;92.82
28588;BME280;15787;49.662;10.162;2023-10-31T12:13:13;98055.41;;;12.77;92.85
28588;BME280;15787;49.662;10.162;2023-10-31T12:15:51;98063.97;;;12.91;92.15
28588;BME280;15787;49.662;10.162;2023-10-31T12:18:25;98056.84;;;12.63;92.15
28588;BME280;15787;49.662;10.162;2023-10-31T12:20:58;98061.34;;;12.69;93.01
28588;BME280;15787;49.662;10.162;2023-10-31T12:23:32;98072.69;;;12.75;92.58
28588;BME280;15787;49.662;10.162;2023-10-31T12:26:05;98065.66;;;12.89;93.81
28588;BME280;15787;49.662;10.162;2023-10-31T12:28:38;98073.31;;;12.70;92.44
28588;BME280;15787;49.662;10.162;2023-10-31T12:31:11;98079.84;;;12.76;92.53
28588;BME280;15787;49.662;10.162;2023-10-31T12:33:44;98069.56;;;12.91;92.22
28588;BME280;15787;49.662;10.162;2023-10-31T12:36:18;98075.63;;;12.90;91.05
28588;BME280;15787;49.662;10.162;2023-10-31T12:38:53;98072.03;;;13.07;91.50
28588;BME280;15787;49.662;10.162;2023-10-31T12:41:26;98073.75;;;12.96;91.22
28588;BME280;15787;49.662;10.162;2023-10-31T12:44:00;98072.66;;;13.11;91.68
28588;BME280;15787;49.662;10.162;2023-10-31T12:46:33;98069.53;;;13.00;90.91
28588;BME280;15787;49.662;10.162;2023-10-31T12:49:11;98077.28;;;13.05;90.62
28588;BME280;15787;49.662;10.162;2023-10-31T12:51:58;98075.28;;;13.15;90.02
28588;BME280;15787;49.662;10.162;2023-10-31T12:54:34;98077.00;;;13.03;89.97
28588;BME280;15787;49.662;10.162;2023-10-31T12:57:09;98069.66;;;13.24;90.28
28588;BME280;15787;49.662;10.162;2023-10-31T12:59:42;98068.88;;;13.23;90.16
28588;BME280;15787;49.662;10.162;2023-10-31T13:02:17;98077.44;;;13.20;90.17
28588;BME280;15787;49.662;10.162;2023-10-31T13:04:50;98075.59;;;13.08;89.33
28588;BME280;15787;49.662;10.162;2023-10-31T13:07:26;98072.75;;;13.26;90.28
28588;BME280;15787;49.662;10.162;2023-10-31T13:10:01;98072.75;;;13.26;88.93
28588;BME280;15787;49.662;10.162;2023-10-31T13:12:35;98076.38;;;12.99;89.17
28588;BME280;15787;49.662;10.162;2023-10-31T13:15:08;98069.22;;;12.98;89.39
28588;BME280;15787;49.662;10.162;2023-10-31T13:17:42;98079.66;;;12.98;89.81
28588;BME280;15787;49.662;10.162;2023-10-31T13:20:17;98084.03;;;12.90;90.80
28588;BME280;15787;49.662;10.162;2023-10-31T13:22:51;98080.94;;;12.79;92.09
28588;BME280;15787;49.662;10.162;2023-10-31T13:25:25;98066.63;;;12.67;92.60
28588;BME280;15787;49.662;10.162;2023-10-31T13:27:58;98076.88;;;12.80;93.11
28588;BME280;15787;49.662;10.162;2023-10-31T13:30:31;98070.38;;;12.64;91.46
28588;BME280;15787;49.662;10.162;2023-10-31T13:33:04;98079.53;;;12.83;92.16
28588;BME280;15787;49.662;10.162;2023-10-31T13:35:37;98078.25;;;12.84;91.28